createdAt,value
2022-07-29T00:01:43.497Z,59.11
2022-07-29T00:04:11.188Z,59.47
2022-07-29T00:06:38.750Z,59.68
2022-07-29T00:09:06.302Z,59.44
2022-07-29T00:11:33.883Z,59.85
2022-07-29T00:14:01.346Z,60.45
2022-07-29T00:16:29.117Z,60.98
2022-07-29T00:18:57.302Z,61.90
2022-07-29T00:21:27.370Z,62.59
2022-07-29T00:23:54.766Z,62.88
2022-07-29T00:26:22.233Z,63.18
2022-07-29T00:28:49.635Z,63.35
2022-07-29T00:31:17.223Z,63.36
2022-07-29T00:33:44.685Z,62.89
2022-07-29T00:36:12.115Z,62.58
2022-07-29T00:38:39.496Z,62.22
2022-07-29T00:41:06.864Z,62.21
2022-07-29T00:43:34.201Z,62.49
2022-07-29T00:46:01.531Z,62.27
2022-07-29T00:48:28.837Z,62.22
2022-07-29T00:50:57.506Z,62.22
2022-07-29T00:53:24.994Z,63.33
2022-07-29T00:55:52.792Z,63.77
2022-07-29T00:58:20.753Z,64.68
2022-07-29T01:00:48.053Z,65.34
2022-07-29T01:03:15.467Z,65.64
2022-07-29T01:05:48.187Z,65.50
2022-07-29T01:08:18.975Z,65.53
2022-07-29T01:10:46.318Z,65.56
2022-07-29T01:13:13.705Z,65.39
2022-07-29T01:15:48.992Z,65.55
2022-07-29T01:18:37.133Z,65.37
2022-07-29T01:21:23.773Z,64.95
2022-07-29T01:24:21.086Z,65.00
2022-07-29T01:27:27.221Z,65.32
2022-07-29T01:29:56.588Z,65.68
2022-07-29T01:32:34.208Z,65.63
2022-07-29T01:35:11.757Z,65.33
2022-07-29T01:38:02.834Z,64.74
2022-07-29T01:40:48.264Z,65.14
2022-07-29T01:43:20.659Z,65.24
2022-07-29T01:45:49.730Z,65.62
2022-07-29T01:48:24.195Z,66.19
2022-07-29T01:51:01.540Z,67.16
2022-07-29T01:53:38.070Z,67.09
2022-07-29T01:56:06.235Z,66.23
2022-07-29T01:58:33.541Z,65.31
2022-07-29T02:01:01.378Z,65.02
2022-07-29T02:03:28.654Z,65.35
2022-07-29T02:05:56.239Z,65.52
2022-07-29T02:08:23.474Z,65.59
2022-07-29T02:10:50.806Z,66.11
2022-07-29T02:13:18.136Z,67.00
2022-07-29T02:15:45.630Z,66.82
2022-07-29T02:18:18.290Z,67.15
2022-07-29T02:20:49.874Z,68.20
2022-07-29T02:23:20.938Z,68.16
2022-07-29T02:25:49.516Z,68.40
2022-07-29T02:28:17.760Z,68.46
2022-07-29T02:30:45.503Z,68.38
2022-07-29T02:33:14.372Z,68.68
2022-07-29T02:35:41.938Z,68.37
2022-07-29T02:38:28.778Z,68.23
2022-07-29T02:40:56.170Z,68.08
2022-07-29T02:43:23.470Z,68.59
2022-07-29T02:45:52.766Z,68.85
2022-07-29T02:48:20.182Z,68.95
2022-07-29T02:50:52.590Z,68.34
2022-07-29T02:53:21.043Z,68.49
2022-07-29T02:55:52.702Z,68.77
2022-07-29T02:58:27.439Z,68.66
2022-07-29T03:00:54.942Z,68.71
2022-07-29T03:03:22.507Z,68.29
2022-07-29T03:05:50.040Z,67.30
2022-07-29T03:08:17.375Z,66.46
2022-07-29T03:10:45.782Z,66.86
2022-07-29T03:13:13.651Z,67.02
2022-07-29T03:15:41.241Z,67.12
2022-07-29T03:18:09.298Z,67.24
2022-07-29T03:20:36.752Z,67.10
2022-07-29T03:23:04.185Z,66.98
2022-07-29T03:25:31.593Z,66.48
2022-07-29T03:27:58.901Z,66.48
2022-07-29T03:30:26.584Z,66.95
2022-07-29T03:32:54.643Z,67.06
2022-07-29T03:35:24.158Z,67.07
2022-07-29T03:37:51.430Z,66.63
2022-07-29T03:40:32.906Z,66.91
2022-07-29T03:43:00.443Z,67.14
2022-07-29T03:45:27.717Z,66.70
2022-07-29T03:48:00.551Z,66.84
2022-07-29T03:50:30.001Z,66.91
2022-07-29T03:52:57.423Z,67.30
2022-07-29T03:55:24.878Z,67.46
2022-07-29T03:57:52.238Z,67.67
2022-07-29T04:00:20.714Z,67.53
2022-07-29T04:02:49.960Z,67.60
2022-07-29T04:05:17.922Z,67.51
2022-07-29T04:07:48.856Z,67.61
2022-07-29T04:10:30.271Z,67.31
2022-07-29T04:13:00.435Z,66.55
2022-07-29T04:15:31.367Z,66.24
2022-07-29T04:18:00.188Z,65.54
2022-07-29T04:20:27.922Z,65.89
2022-07-29T04:22:55.445Z,65.81
2022-07-29T04:25:22.762Z,66.13
2022-07-29T04:28:02.474Z,65.88
2022-07-29T04:30:31.062Z,65.85
2022-07-29T04:32:58.488Z,65.88
2022-07-29T04:35:26.054Z,66.06
2022-07-29T04:37:53.436Z,66.32
2022-07-29T04:40:20.920Z,66.15
2022-07-29T04:42:48.285Z,65.74
2022-07-29T04:45:16.948Z,64.89
2022-07-29T04:47:50.523Z,64.44
2022-07-29T04:50:17.862Z,64.07
2022-07-29T04:52:45.255Z,64.28
2022-07-29T04:55:12.682Z,63.55
2022-07-29T04:57:39.991Z,62.85
2022-07-29T05:00:07.889Z,63.02
2022-07-29T05:02:35.389Z,63.63
2022-07-29T05:05:02.668Z,63.75
2022-07-29T05:07:30.121Z,63.81
2022-07-29T05:09:58.155Z,64.08
2022-07-29T05:12:26.006Z,63.53
2022-07-29T05:14:53.432Z,63.62
2022-07-29T05:17:20.914Z,63.68
2022-07-29T05:19:48.161Z,63.55
2022-07-29T05:22:15.798Z,63.21
2022-07-29T05:24:43.178Z,62.79
2022-07-29T05:27:10.670Z,62.44
2022-07-29T05:29:44.703Z,62.06
2022-07-29T05:32:16.122Z,61.87
2022-07-29T05:34:50.938Z,61.81
2022-07-29T05:37:20.608Z,61.69
2022-07-29T05:39:56.153Z,61.06
2022-07-29T05:42:25.426Z,60.99
2022-07-29T05:44:53.026Z,61.23
2022-07-29T05:47:20.401Z,60.97
2022-07-29T05:49:48.007Z,60.49
2022-07-29T05:52:15.932Z,59.47
2022-07-29T05:54:43.373Z,60.04
2022-07-29T05:57:21.080Z,59.64
2022-07-29T05:59:49.205Z,60.12
2022-07-29T06:02:16.725Z,59.57
2022-07-29T06:04:44.428Z,59.72
2022-07-29T06:07:12.450Z,59.32
2022-07-29T06:09:39.967Z,58.58
2022-07-29T06:12:07.461Z,57.87
2022-07-29T06:14:34.954Z,56.93
2022-07-29T06:17:02.544Z,56.82
2022-07-29T06:19:30.197Z,56.66
2022-07-29T06:21:57.592Z,56.59
2022-07-29T06:24:25.157Z,56.45
2022-07-29T06:26:52.512Z,56.37
2022-07-29T06:29:20.420Z,55.78
2022-07-29T06:31:47.719Z,55.63
2022-07-29T06:34:15.430Z,56.04
2022-07-29T06:36:42.955Z,56.06
2022-07-29T06:39:11.675Z,56.48
2022-07-29T06:41:39.674Z,56.55
2022-07-29T06:44:16.604Z,53.29
2022-07-29T06:46:44.783Z,48.77
2022-07-29T06:49:13.644Z,45.06
2022-07-29T06:51:41.222Z,43.04
2022-07-29T06:54:08.929Z,41.07
2022-07-29T06:56:40.118Z,40.04
2022-07-29T06:59:09.493Z,39.97
2022-07-29T07:01:42.001Z,39.77
2022-07-29T07:04:12.674Z,37.38
2022-07-29T07:06:40.331Z,36.58
2022-07-29T07:09:07.705Z,35.09
2022-07-29T07:11:35.287Z,35.30
2022-07-29T07:14:14.829Z,36.32
2022-07-29T07:16:42.481Z,35.39
2022-07-29T07:19:09.901Z,34.83
2022-07-29T07:21:37.553Z,35.15
2022-07-29T07:24:05.278Z,34.67
2022-07-29T07:26:33.499Z,33.70
2022-07-29T07:29:01.718Z,33.09
2022-07-29T07:31:29.437Z,33.20
2022-07-29T07:33:56.848Z,32.56
2022-07-29T07:36:24.498Z,32.18
2022-07-29T07:38:51.817Z,31.48
2022-07-29T07:41:19.226Z,31.77
2022-07-29T07:43:46.711Z,31.17
2022-07-29T07:46:14.432Z,31.80
2022-07-29T07:48:41.833Z,32.17
2022-07-29T07:51:09.174Z,31.56
2022-07-29T07:53:36.751Z,30.77
2022-07-29T07:56:11.003Z,30.48
2022-07-29T07:58:39.877Z,29.88
2022-07-29T08:01:07.836Z,30.70
2022-07-29T08:03:35.555Z,30.72
2022-07-29T08:06:03.997Z,30.78
2022-07-29T08:08:31.455Z,29.29
2022-07-29T08:11:00.598Z,30.66
2022-07-29T08:13:31.558Z,30.90
2022-07-29T08:15:59.261Z,29.47
2022-07-29T08:18:27.545Z,28.50
2022-07-29T08:20:55.141Z,28.76
2022-07-29T08:23:24.015Z,29.37
2022-07-29T08:25:54.787Z,30.24
2022-07-29T08:28:26.038Z,30.12
2022-07-29T08:30:53.693Z,30.29
2022-07-29T08:33:21.021Z,30.12
2022-07-29T08:35:48.523Z,28.67
2022-07-29T08:38:15.860Z,28.19
2022-07-29T08:40:43.205Z,28.80
2022-07-29T08:43:10.599Z,28.42
2022-07-29T08:45:49.858Z,28.17
2022-07-29T08:48:21.234Z,27.53
2022-07-29T08:50:52.443Z,27.98
2022-07-29T08:53:19.884Z,28.25
2022-07-29T08:55:48.416Z,26.76
2022-07-29T08:58:16.123Z,27.02
2022-07-29T09:00:48.622Z,26.89
2022-07-29T09:03:19.361Z,27.59
2022-07-29T09:05:48.189Z,30.68
2022-07-29T09:08:16.494Z,32.61
2022-07-29T09:10:44.187Z,33.97
2022-07-29T09:13:11.756Z,33.18
2022-07-29T09:15:39.119Z,33.14
2022-07-29T09:18:06.768Z,34.54
2022-07-29T09:20:52.568Z,34.37
2022-07-29T09:23:23.105Z,34.34
2022-07-29T09:25:51.797Z,34.47
2022-07-29T09:28:19.232Z,34.31
2022-07-29T09:30:53.354Z,34.68
2022-07-29T09:33:23.986Z,34.56
2022-07-29T09:36:01.802Z,34.31
2022-07-29T09:38:30.054Z,34.73
2022-07-29T09:41:04.624Z,34.63
2022-07-29T09:43:34.328Z,35.13
2022-07-29T09:46:13.056Z,34.20
2022-07-29T09:48:40.666Z,33.78
2022-07-29T09:51:25.583Z,33.71
2022-07-29T09:53:57.618Z,33.50
2022-07-29T09:56:45.129Z,31.83
2022-07-29T09:59:15.464Z,32.10
2022-07-29T10:01:42.824Z,32.37
2022-07-29T10:04:10.265Z,32.09
2022-07-29T10:07:03.602Z,31.93
2022-07-29T10:09:32.663Z,33.21
2022-07-29T10:12:10.912Z,33.66
2022-07-29T10:14:38.391Z,34.02
2022-07-29T10:17:06.552Z,33.60
2022-07-29T10:19:34.727Z,32.98
2022-07-29T10:22:05.030Z,33.27
2022-07-29T10:24:32.679Z,34.18
2022-07-29T10:27:01.963Z,33.23
2022-07-29T10:29:30.285Z,33.49
2022-07-29T10:32:08.969Z,33.43
2022-07-29T10:35:10.423Z,33.31
2022-07-29T10:38:04.196Z,32.94
2022-07-29T10:41:21.803Z,33.67
2022-07-29T10:43:51.362Z,34.03
2022-07-29T10:46:19.665Z,33.13
2022-07-29T10:49:09.496Z,33.02
2022-07-29T10:52:06.373Z,32.96
2022-07-29T10:54:36.622Z,33.31
2022-07-29T10:57:13.786Z,32.88
2022-07-29T10:59:43.144Z,32.61
2022-07-29T11:02:41.808Z,33.05
2022-07-29T11:05:19.163Z,33.26
2022-07-29T11:08:20.136Z,33.05
2022-07-29T11:11:15.897Z,32.15
2022-07-29T11:13:46.623Z,31.76
2022-07-29T11:16:16.228Z,32.65
2022-07-29T11:19:13.822Z,31.91
2022-07-29T11:21:53.953Z,31.66
2022-07-29T11:24:30.183Z,32.45
2022-07-29T11:27:11.097Z,32.66
2022-07-29T11:29:41.525Z,32.28
2022-07-29T11:32:18.361Z,32.57
2022-07-29T11:35:17.408Z,32.53
2022-07-29T11:41:19.165Z,33.49
2022-07-29T11:44:00.755Z,33.04
2022-07-29T11:46:50.812Z,33.28
2022-07-29T11:49:31.711Z,33.41
2022-07-29T11:52:04.164Z,33.48
2022-07-29T11:54:57.406Z,33.72
2022-07-29T11:57:36.086Z,33.27
2022-07-29T12:00:12.731Z,33.55
2022-07-29T12:02:48.513Z,33.87
2022-07-29T12:05:23.972Z,33.69
2022-07-29T12:07:03.582Z,32.90
2022-07-29T12:08:12.673Z,33.16
2022-07-29T12:10:42.564Z,33.56
2022-07-29T12:13:11.372Z,33.72
2022-07-29T12:15:47.183Z,33.63
2022-07-29T12:18:16.604Z,34.09
2022-07-29T12:20:46.364Z,34.00
2022-07-29T12:23:13.768Z,33.50
2022-07-29T12:25:44.514Z,33.39
2022-07-29T12:28:26.706Z,33.89
2022-07-29T12:30:54.896Z,33.81
2022-07-29T12:33:26.432Z,33.96
2022-07-29T12:36:12.808Z,33.58
2022-07-29T12:38:44.956Z,32.56
2022-07-29T12:41:12.305Z,32.97
2022-07-29T12:43:53.526Z,32.48
2022-07-29T12:46:21.055Z,33.00
2022-07-29T12:48:52.183Z,32.83
2022-07-29T12:51:19.959Z,32.49
2022-07-29T12:54:16.845Z,33.61
2022-07-29T12:56:45.624Z,33.07
2022-07-29T12:59:20.716Z,33.43
2022-07-29T13:01:50.955Z,33.42
2022-07-29T13:04:29.292Z,33.50
2022-07-29T13:07:10.381Z,33.21
2022-07-29T13:09:42.763Z,33.27
2022-07-29T13:12:11.580Z,33.10
2022-07-29T13:14:39.904Z,33.28
2022-07-29T13:17:12.313Z,33.45
2022-07-29T13:19:50.789Z,33.39
2022-07-29T13:22:20.586Z,33.92
2022-07-29T13:24:51.760Z,33.18
2022-07-29T13:27:19.921Z,33.12
2022-07-29T13:29:47.552Z,32.97
2022-07-29T13:32:15.322Z,33.20
2022-07-29T13:34:42.618Z,32.73
2022-07-29T13:37:10.237Z,32.68
2022-07-29T13:39:38.589Z,32.56
2022-07-29T13:42:10.656Z,33.08
2022-07-29T13:44:38.666Z,33.37
2022-07-29T13:47:07.336Z,33.81
2022-07-29T13:49:35.113Z,33.81
2022-07-29T13:52:02.962Z,33.76
2022-07-29T13:54:30.343Z,33.76
2022-07-29T13:56:57.659Z,33.77
2022-07-29T13:59:25.152Z,33.35
2022-07-29T14:01:52.535Z,33.75
2022-07-29T14:04:19.940Z,33.68
2022-07-29T14:06:48.221Z,33.97
2022-07-29T14:09:16.670Z,34.27
2022-07-29T14:11:44.599Z,34.04
2022-07-29T14:14:12.619Z,33.76
2022-07-29T14:16:43.759Z,33.76
2022-07-29T14:19:16.465Z,33.79
2022-07-29T14:21:44.028Z,33.81
2022-07-29T14:24:18.051Z,34.03
2022-07-29T14:26:49.144Z,33.85
2022-07-29T14:29:16.688Z,33.91
2022-07-29T14:31:44.968Z,33.97
2022-07-29T14:34:12.341Z,34.14
2022-07-29T14:36:39.744Z,34.68
2022-07-29T14:39:06.974Z,34.65
2022-07-29T14:41:34.514Z,34.45
2022-07-29T14:44:01.814Z,34.26
2022-07-29T14:46:29.749Z,35.22
2022-07-29T14:48:57.177Z,35.67
2022-07-29T14:51:24.636Z,35.89
2022-07-29T14:54:00.068Z,36.17
2022-07-29T14:56:37.059Z,36.20
2022-07-29T14:59:05.166Z,36.36
2022-07-29T15:01:32.587Z,36.57
2022-07-29T15:04:00.112Z,36.62
2022-07-29T15:06:27.763Z,36.93
2022-07-29T15:08:55.312Z,36.85
2022-07-29T15:11:22.936Z,36.94
2022-07-29T15:13:50.311Z,37.17
2022-07-29T15:16:18.261Z,36.88
2022-07-29T15:18:46.189Z,37.16
2022-07-29T15:21:13.600Z,37.02
2022-07-29T15:23:40.972Z,37.27
2022-07-29T15:26:08.356Z,37.28
2022-07-29T15:28:35.770Z,36.84
2022-07-29T15:31:03.152Z,36.74
2022-07-29T15:33:30.576Z,37.11
2022-07-29T15:35:58.159Z,36.98
2022-07-29T15:38:28.666Z,37.35
2022-07-29T15:40:56.385Z,37.50
2022-07-29T15:43:24.185Z,37.35
2022-07-29T15:46:12.501Z,37.36
2022-07-29T15:48:40.398Z,37.67
2022-07-29T15:51:07.977Z,38.10
2022-07-29T15:53:35.440Z,37.66
2022-07-29T15:56:03.043Z,37.87
2022-07-29T15:58:31.110Z,37.95
2022-07-29T16:00:58.939Z,37.91
2022-07-29T16:03:26.583Z,37.91
2022-07-29T16:05:54.023Z,37.53
2022-07-29T16:08:21.385Z,37.57
2022-07-29T16:10:48.778Z,37.59
2022-07-29T16:13:17.865Z,37.73
2022-07-29T16:15:46.711Z,37.89
2022-07-29T16:18:30.806Z,37.85
2022-07-29T16:20:58.335Z,38.04
2022-07-29T16:23:25.857Z,37.94
2022-07-29T16:26:01.292Z,37.88
2022-07-29T16:28:30.585Z,37.84
2022-07-29T16:30:57.988Z,37.80
2022-07-29T16:33:25.369Z,37.98
2022-07-29T16:35:53.180Z,37.89
2022-07-29T16:38:20.629Z,37.89
2022-07-29T16:40:47.860Z,38.09
2022-07-29T16:43:15.366Z,38.23
2022-07-29T16:45:46.187Z,38.11
2022-07-29T16:48:14.813Z,38.26
2022-07-29T16:50:43.274Z,38.11
2022-07-29T16:53:11.067Z,38.33
2022-07-29T16:55:38.628Z,38.04
2022-07-29T16:58:10.695Z,38.16
2022-07-29T17:00:38.205Z,38.00
2022-07-29T17:03:06.032Z,37.68
2022-07-29T17:05:52.584Z,37.46
2022-07-29T17:08:20.777Z,37.49
2022-07-29T17:10:48.183Z,37.64
2022-07-29T17:13:15.711Z,37.98
2022-07-29T17:15:43.410Z,37.96
2022-07-29T17:18:12.180Z,37.93
2022-07-29T17:20:41.614Z,37.77
2022-07-29T17:23:09.158Z,37.96
2022-07-29T17:25:36.522Z,37.09
2022-07-29T17:28:04.176Z,36.89
2022-07-29T17:30:31.606Z,36.89
2022-07-29T17:32:59.112Z,37.22
2022-07-29T17:35:45.046Z,37.25
2022-07-29T17:38:12.766Z,38.47
2022-07-29T17:40:40.125Z,37.93
2022-07-29T17:43:09.417Z,37.80
2022-07-29T17:45:49.901Z,37.95
2022-07-29T17:48:19.002Z,39.30
2022-07-29T17:50:47.172Z,39.57
2022-07-29T17:53:15.793Z,40.16
2022-07-29T17:55:48.979Z,40.38
2022-07-29T17:58:16.442Z,40.91
2022-07-29T18:00:44.117Z,42.17
2022-07-29T18:03:11.743Z,44.71
2022-07-29T18:05:39.081Z,46.10
2022-07-29T18:08:06.477Z,47.63
2022-07-29T18:10:34.028Z,49.03
2022-07-29T18:13:01.411Z,49.84
2022-07-29T18:15:28.831Z,50.20
2022-07-29T18:17:57.699Z,50.60
2022-07-29T18:20:26.256Z,50.78
2022-07-29T18:22:53.612Z,51.25
2022-07-29T18:25:20.990Z,51.68
2022-07-29T18:27:48.568Z,52.32
2022-07-29T18:30:15.819Z,52.67
2022-07-29T18:32:59.051Z,53.05
2022-07-29T18:35:26.922Z,53.08
2022-07-29T18:38:02.226Z,53.62
2022-07-29T18:40:30.323Z,53.68
2022-07-29T18:42:57.923Z,54.06
2022-07-29T18:45:28.479Z,54.44
2022-07-29T18:47:56.783Z,54.73
2022-07-29T18:50:28.862Z,54.84
2022-07-29T18:52:59.024Z,54.87
2022-07-29T18:55:26.772Z,55.13
2022-07-29T18:57:56.583Z,55.72
2022-07-29T19:00:25.245Z,55.95
2022-07-29T19:02:53.025Z,56.01
2022-07-29T19:05:20.868Z,56.03
2022-07-29T19:07:48.231Z,56.09
2022-07-29T19:10:15.658Z,55.93
2022-07-29T19:12:43.350Z,55.78
2022-07-29T19:15:11.027Z,56.21
2022-07-29T19:17:38.942Z,56.82
2022-07-29T19:20:07.383Z,56.71
2022-07-29T19:22:35.023Z,57.24
2022-07-29T19:25:02.398Z,57.60
2022-07-29T19:27:29.788Z,57.45
2022-07-29T19:29:59.405Z,57.69
2022-07-29T19:32:27.093Z,57.94
2022-07-29T19:35:13.013Z,58.34
2022-07-29T19:37:40.741Z,58.15
2022-07-29T19:40:08.297Z,58.22
2022-07-29T19:42:35.624Z,58.67
2022-07-29T19:45:02.968Z,58.62
2022-07-29T19:47:30.563Z,58.96
2022-07-29T19:49:58.084Z,59.60
2022-07-29T19:52:25.550Z,59.79
2022-07-29T19:54:53.263Z,60.08
2022-07-29T19:57:20.857Z,60.30
2022-07-29T19:59:48.199Z,60.54
2022-07-29T20:02:17.097Z,60.66
2022-07-29T20:04:44.538Z,60.28
2022-07-29T20:07:13.328Z,60.43
2022-07-29T20:09:41.063Z,60.17
2022-07-29T20:12:09.542Z,60.15
2022-07-29T20:14:37.424Z,60.59
2022-07-29T20:17:05.124Z,60.72
2022-07-29T20:19:33.298Z,60.73
2022-07-29T20:22:00.828Z,60.08
2022-07-29T20:24:28.139Z,60.62
2022-07-29T20:26:55.481Z,60.18
2022-07-29T20:29:22.945Z,60.28
2022-07-29T20:31:53.335Z,60.62
2022-07-29T20:34:24.276Z,60.23
2022-07-29T20:36:51.564Z,59.87
2022-07-29T20:39:21.226Z,59.98
2022-07-29T20:41:49.043Z,60.33
2022-07-29T20:44:18.998Z,59.72
2022-07-29T20:46:46.914Z,59.76
2022-07-29T20:49:14.275Z,59.63
2022-07-29T20:51:43.710Z,59.54
2022-07-29T20:54:11.987Z,59.86
2022-07-29T20:56:39.698Z,60.11
2022-07-29T20:59:07.845Z,60.31
2022-07-29T21:01:35.405Z,60.42
2022-07-29T21:04:03.361Z,60.14
2022-07-29T21:06:31.074Z,60.27
2022-07-29T21:08:59.929Z,59.86
2022-07-29T21:11:44.346Z,60.19
2022-07-29T21:14:36.742Z,59.99
2022-07-29T21:17:07.923Z,60.24
2022-07-29T21:19:35.532Z,60.44
2022-07-29T21:22:03.001Z,60.19
2022-07-29T21:24:30.380Z,59.84
2022-07-29T21:27:21.328Z,59.99
2022-07-29T21:29:49.500Z,59.81
2022-07-29T21:32:29.679Z,59.76
2022-07-29T21:34:58.123Z,59.96
2022-07-29T21:37:25.412Z,60.25
2022-07-29T21:39:52.948Z,60.40
2022-07-29T21:42:20.351Z,60.31
2022-07-29T21:44:47.825Z,60.34
2022-07-29T21:47:15.256Z,60.19
2022-07-29T21:49:42.635Z,60.26
2022-07-29T21:52:09.909Z,59.97
2022-07-29T21:54:38.906Z,59.71
2022-07-29T21:57:07.058Z,59.76
2022-07-29T21:59:34.752Z,59.37
2022-07-29T22:02:02.090Z,59.39
2022-07-29T22:04:29.785Z,59.59
2022-07-29T22:06:57.727Z,60.25
2022-07-29T22:09:25.548Z,61.28
2022-07-29T22:11:52.948Z,61.77
2022-07-29T22:14:20.807Z,61.54
2022-07-29T22:16:48.152Z,60.70
2022-07-29T22:19:15.610Z,59.41
2022-07-29T22:21:43.090Z,58.65
2022-07-29T22:24:11.340Z,58.63
2022-07-29T22:26:38.853Z,58.08
2022-07-29T22:29:06.609Z,57.09
2022-07-29T22:31:34.051Z,57.01
2022-07-29T22:34:01.445Z,56.65
2022-07-29T22:36:28.864Z,56.45
2022-07-29T22:38:56.189Z,56.20
2022-07-29T22:41:23.493Z,56.35
2022-07-29T22:43:50.877Z,56.43
2022-07-29T22:46:18.577Z,56.46
2022-07-29T22:48:46.420Z,56.08
2022-07-29T22:51:13.784Z,56.14
2022-07-29T22:53:41.769Z,57.04
2022-07-29T22:56:09.143Z,57.14
2022-07-29T22:58:36.474Z,57.08
2022-07-29T23:01:03.985Z,57.45
2022-07-29T23:03:31.577Z,57.78
2022-07-29T23:05:58.858Z,57.86
2022-07-29T23:08:26.266Z,57.66
2022-07-29T23:10:53.619Z,57.60
2022-07-29T23:13:20.967Z,57.91
2022-07-29T23:15:48.418Z,58.08
2022-07-29T23:18:15.853Z,58.09
2022-07-29T23:20:43.938Z,58.56
2022-07-29T23:23:11.408Z,58.56
2022-07-29T23:25:38.952Z,58.45
2022-07-29T23:28:06.420Z,58.16
2022-07-29T23:30:39.014Z,57.95
2022-07-29T23:33:06.331Z,57.79
2022-07-29T23:35:33.890Z,58.15
2022-07-29T23:38:01.255Z,58.25
2022-07-29T23:40:28.751Z,58.06
2022-07-29T23:42:56.170Z,57.94
2022-07-29T23:45:23.686Z,57.75
2022-07-29T23:48:09.770Z,57.77
2022-07-29T23:50:37.115Z,57.81
2022-07-29T23:53:04.539Z,57.82
2022-07-29T23:55:37.546Z,57.86
2022-07-29T23:58:06.376Z,57.96
